createdAt,value
2022-10-26T00:01:09.186Z,101501.31
2022-10-26T00:03:36.378Z,101494.13
2022-10-26T00:06:11.583Z,101493.75
2022-10-26T00:08:38.508Z,101491.84
2022-10-26T00:11:05.510Z,101493.88
2022-10-26T00:13:32.619Z,101491.84
2022-10-26T00:18:26.659Z,101491.41
2022-10-26T00:20:53.144Z,101489.50
2022-10-26T00:23:19.635Z,101491.66
2022-10-26T00:25:54.369Z,101491.69
2022-10-26T00:28:20.818Z,101491.47
2022-10-26T00:30:47.590Z,101484.41
2022-10-26T00:33:14.512Z,101491.41
2022-10-26T00:35:45.972Z,101485.38
2022-10-26T00:38:12.962Z,101492.97
2022-10-26T00:40:39.427Z,101485.13
2022-10-26T00:43:13.404Z,101490.47
2022-10-26T00:45:39.968Z,101497.75
2022-10-26T00:48:10.094Z,101491.75
2022-10-26T00:50:39.745Z,101494.69
2022-10-26T00:53:07.074Z,101492.66
2022-10-26T00:55:40.636Z,101492.66
2022-10-26T00:58:07.369Z,101495.44
2022-10-26T01:00:33.838Z,101491.28
2022-10-26T01:03:06.504Z,101488.59
2022-10-26T01:05:34.375Z,101493.31
2022-10-26T01:08:01.935Z,101485.78
2022-10-26T01:10:28.940Z,101493.53
2022-10-26T01:12:56.770Z,101490.75
2022-10-26T01:15:28.418Z,101497.31
2022-10-26T01:17:57.891Z,101500.94
2022-10-26T01:20:59.724Z,101493.81
2022-10-26T01:23:34.055Z,101489.75
2022-10-26T01:26:15.345Z,101488.47
2022-10-26T01:29:06.608Z,101494.13
2022-10-26T01:31:45.887Z,101492.53
2022-10-26T01:34:15.328Z,101486.69
2022-10-26T01:36:45.905Z,101492.91
2022-10-26T01:39:21.166Z,101494.19
2022-10-26T01:41:50.049Z,101497.50
2022-10-26T01:44:28.625Z,101487.72
2022-10-26T01:46:55.937Z,101482.63
2022-10-26T01:49:25.395Z,101481.41
2022-10-26T01:51:51.864Z,101483.75
2022-10-26T01:54:18.343Z,101479.63
2022-10-26T01:56:47.870Z,101472.84
2022-10-26T01:59:30.419Z,101479.41
2022-10-26T02:02:19.556Z,101493.06
2022-10-26T02:05:13.706Z,101489.03
2022-10-26T02:07:58.378Z,101480.53
2022-10-26T02:10:46.237Z,101492.59
2022-10-26T02:13:32.882Z,101488.47
2022-10-26T02:16:24.616Z,101484.72
2022-10-26T02:19:17.084Z,101481.59
2022-10-26T02:21:53.368Z,101484.16
2022-10-26T02:24:20.427Z,101497.88
2022-10-26T02:26:48.233Z,101484.16
2022-10-26T02:29:17.707Z,101482.22
2022-10-26T02:31:45.468Z,101485.63
2022-10-26T02:34:13.616Z,101477.66
2022-10-26T02:36:42.940Z,101483.50
2022-10-26T02:39:10.233Z,101479.25
2022-10-26T02:41:36.886Z,101467.97
2022-10-26T02:44:25.060Z,101462.13
2022-10-26T02:46:51.871Z,101469.09
2022-10-26T02:49:18.571Z,101466.34
2022-10-26T02:51:45.992Z,101481.78
2022-10-26T02:54:26.842Z,101484.69
2022-10-26T02:57:00.262Z,101484.66
2022-10-26T02:59:30.918Z,101482.06
2022-10-26T03:01:57.746Z,101479.97
2022-10-26T03:04:31.436Z,101477.28
2022-10-26T03:06:58.265Z,101477.94
2022-10-26T03:09:25.683Z,101471.34
2022-10-26T03:11:52.520Z,101487.25
2022-10-26T03:14:19.055Z,101484.28
2022-10-26T03:16:45.815Z,101477.47
2022-10-26T03:19:12.466Z,101492.59
2022-10-26T03:21:38.923Z,101493.47
2022-10-26T03:24:05.647Z,101498.66
2022-10-26T03:26:32.127Z,101492.50
2022-10-26T03:28:58.667Z,101481.53
2022-10-26T03:31:25.160Z,101478.59
2022-10-26T03:33:51.746Z,101476.50
2022-10-26T03:36:18.198Z,101482.63
2022-10-26T03:38:44.800Z,101479.16
2022-10-26T03:41:11.317Z,101482.34
2022-10-26T03:43:37.836Z,101476.75
2022-10-26T03:46:04.355Z,101478.03
2022-10-26T03:48:30.850Z,101471.31
2022-10-26T03:50:58.319Z,101477.19
2022-10-26T03:53:25.083Z,101471.75
2022-10-26T03:55:51.595Z,101486.50
2022-10-26T03:58:18.134Z,101478.66
2022-10-26T04:00:44.846Z,101476.69
2022-10-26T04:03:11.382Z,101484.63
2022-10-26T04:05:37.869Z,101488.94
2022-10-26T04:08:04.389Z,101488.69
2022-10-26T04:10:34.740Z,101497.06
2022-10-26T04:13:01.278Z,101484.56
2022-10-26T04:15:28.408Z,101471.31
2022-10-26T04:17:59.831Z,101470.59
2022-10-26T04:20:27.036Z,101468.25
2022-10-26T04:23:00.302Z,101468.28
2022-10-26T04:25:30.118Z,101465.44
2022-10-26T04:28:00.389Z,101456.41
2022-10-26T04:30:26.855Z,101474.03
2022-10-26T04:32:53.323Z,101475.63
2022-10-26T04:35:19.833Z,101469.38
2022-10-26T04:37:46.298Z,101485.03
2022-10-26T04:40:12.831Z,101484.84
2022-10-26T04:42:46.620Z,101481.03
2022-10-26T04:45:14.740Z,101483.38
2022-10-26T04:47:41.697Z,101478.63
2022-10-26T04:50:09.229Z,101480.47
2022-10-26T04:52:36.288Z,101470.03
2022-10-26T04:55:06.160Z,101468.66
2022-10-26T04:57:33.552Z,101478.31
2022-10-26T05:00:00.983Z,101481.44
2022-10-26T05:02:28.641Z,101482.09
2022-10-26T05:04:55.279Z,101482.03
2022-10-26T05:07:21.786Z,101485.59
2022-10-26T05:09:48.311Z,101476.78
2022-10-26T05:12:14.828Z,101491.56
2022-10-26T05:14:41.333Z,101496.25
2022-10-26T05:17:07.923Z,101502.47
2022-10-26T05:19:34.499Z,101500.94
2022-10-26T05:22:01.053Z,101497.00
2022-10-26T05:24:27.507Z,101502.28
2022-10-26T05:26:54.138Z,101492.47
2022-10-26T05:29:20.595Z,101492.47
2022-10-26T05:31:47.193Z,101484.72
2022-10-26T05:34:13.669Z,101487.50
2022-10-26T05:36:40.303Z,101489.59
2022-10-26T05:39:06.896Z,101494.66
2022-10-26T05:41:33.469Z,101481.81
2022-10-26T05:44:00.037Z,101489.75
2022-10-26T05:46:26.623Z,101488.56
2022-10-26T05:48:53.171Z,101486.56
2022-10-26T05:51:19.652Z,101485.22
2022-10-26T05:53:46.190Z,101477.66
2022-10-26T05:56:34.000Z,101481.88
2022-10-26T05:59:04.901Z,101477.81
2022-10-26T06:02:00.605Z,101480.16
2022-10-26T06:04:38.770Z,101497.88
2022-10-26T06:07:13.549Z,101500.22
2022-10-26T06:09:41.268Z,101505.03
2022-10-26T06:12:08.790Z,101512.66
2022-10-26T06:14:35.981Z,101517.66
2022-10-26T06:17:22.376Z,101516.78
2022-10-26T06:20:26.141Z,101520.59
2022-10-26T06:23:18.874Z,101528.59
2022-10-26T06:26:09.557Z,101513.75
2022-10-26T06:28:55.936Z,101525.53
2022-10-26T06:31:22.410Z,101532.88
2022-10-26T06:33:48.860Z,101532.56
2022-10-26T06:36:22.926Z,101527.25
2022-10-26T06:38:53.042Z,101524.75
2022-10-26T06:41:20.067Z,101522.59
2022-10-26T06:43:46.751Z,101532.19
2022-10-26T06:46:41.834Z,101538.44
2022-10-26T06:49:27.989Z,101543.94
2022-10-26T06:52:03.800Z,101548.72
2022-10-26T06:54:47.140Z,101551.41
2022-10-26T06:57:15.899Z,101552.31
2022-10-26T06:59:50.635Z,101567.69
2022-10-26T07:02:17.584Z,101557.16
2022-10-26T07:04:44.497Z,101567.50
2022-10-26T07:07:17.440Z,101568.38
2022-10-26T07:09:43.906Z,101566.69
2022-10-26T07:12:10.427Z,101572.19
2022-10-26T07:14:36.875Z,101573.38
2022-10-26T07:17:03.863Z,101570.72
2022-10-26T07:19:30.314Z,101586.03
2022-10-26T07:21:57.495Z,101571.09
2022-10-26T07:24:24.069Z,101572.75
2022-10-26T07:26:50.587Z,101577.69
2022-10-26T07:29:18.088Z,101584.50
2022-10-26T07:31:44.773Z,101583.50
2022-10-26T07:34:11.304Z,101587.03
2022-10-26T07:36:37.847Z,101595.81
2022-10-26T07:39:04.399Z,101606.28
2022-10-26T07:41:30.892Z,101605.97
2022-10-26T07:43:57.503Z,101603.13
2022-10-26T07:46:24.071Z,101598.97
2022-10-26T07:48:50.691Z,101595.81
2022-10-26T07:51:17.187Z,101597.66
2022-10-26T07:53:43.677Z,101601.28
2022-10-26T07:56:10.704Z,101606.25
2022-10-26T07:58:37.297Z,101617.53
2022-10-26T08:01:13.239Z,101606.56
2022-10-26T08:03:40.311Z,101599.63
2022-10-26T08:06:07.578Z,101602.41
2022-10-26T08:08:34.077Z,101603.88
2022-10-26T08:11:00.860Z,101601.63
2022-10-26T08:13:27.526Z,101614.22
2022-10-26T08:16:01.729Z,101619.50
2022-10-26T08:18:28.354Z,101614.84
2022-10-26T08:21:01.740Z,101609.81
2022-10-26T08:23:36.691Z,101616.41
2022-10-26T08:26:03.923Z,101603.78
2022-10-26T08:28:30.819Z,101598.13
2022-10-26T08:30:57.273Z,101611.94
2022-10-26T08:33:24.702Z,101611.09
2022-10-26T08:36:02.339Z,101599.56
2022-10-26T08:38:29.244Z,101599.94
2022-10-26T08:40:57.543Z,101604.75
2022-10-26T08:43:27.955Z,101596.22
2022-10-26T08:45:57.158Z,101602.06
2022-10-26T08:48:35.803Z,101598.63
2022-10-26T08:51:24.522Z,101589.81
2022-10-26T08:54:00.017Z,101592.28
2022-10-26T08:56:28.370Z,101585.66
2022-10-26T08:58:57.459Z,101578.38
2022-10-26T09:01:24.027Z,101572.53
2022-10-26T09:03:50.884Z,101572.91
2022-10-26T09:06:41.519Z,101578.47
2022-10-26T09:09:16.868Z,101571.75
2022-10-26T09:12:07.487Z,101560.19
2022-10-26T09:14:43.560Z,101560.44
2022-10-26T09:17:34.806Z,101558.88
2022-10-26T09:20:18.259Z,101556.72
2022-10-26T09:23:01.009Z,101555.44
2022-10-26T09:25:35.479Z,101554.75
2022-10-26T09:28:02.264Z,101548.50
2022-10-26T09:30:30.322Z,101546.25
2022-10-26T09:33:02.593Z,101545.31
2022-10-26T09:36:00.397Z,101546.84
2022-10-26T09:38:32.305Z,101556.09
2022-10-26T09:41:06.602Z,101542.53
2022-10-26T09:43:41.731Z,101537.44
2022-10-26T09:46:13.450Z,101534.09
2022-10-26T09:48:45.552Z,101528.16
2022-10-26T09:51:12.217Z,101534.19
2022-10-26T09:53:38.666Z,101524.50
2022-10-26T09:56:10.544Z,101533.03
2022-10-26T09:58:44.959Z,101529.13
2022-10-26T10:01:22.072Z,101529.63
2022-10-26T10:03:48.603Z,101525.91
2022-10-26T10:06:18.372Z,101521.44
2022-10-26T10:09:05.119Z,101513.63
2022-10-26T10:11:54.887Z,101508.09
2022-10-26T10:14:26.614Z,101504.81
2022-10-26T10:16:55.700Z,101510.44
2022-10-26T10:19:25.354Z,101506.75
2022-10-26T10:21:54.525Z,101501.81
2022-10-26T10:24:33.675Z,101502.28
2022-10-26T10:27:03.010Z,101494.91
2022-10-26T10:29:34.918Z,101494.50
2022-10-26T10:32:03.057Z,101484.63
2022-10-26T10:34:33.619Z,101479.84
2022-10-26T10:37:00.993Z,101477.19
2022-10-26T10:39:34.546Z,101481.94
2022-10-26T10:42:01.163Z,101481.09
2022-10-26T10:44:31.726Z,101474.72
2022-10-26T10:47:06.279Z,101463.94
2022-10-26T10:49:33.418Z,101451.59
2022-10-26T10:52:00.296Z,101459.44
2022-10-26T10:54:33.364Z,101459.81
2022-10-26T10:57:29.442Z,101454.25
2022-10-26T11:00:05.385Z,101451.94
2022-10-26T11:02:47.010Z,101448.16
2022-10-26T11:05:32.039Z,101447.16
2022-10-26T11:08:03.821Z,101442.16
2022-10-26T11:10:35.271Z,101442.75
2022-10-26T11:13:05.002Z,101441.59
2022-10-26T11:15:34.441Z,101442.38
2022-10-26T11:18:09.576Z,101443.16
2022-10-26T11:20:40.866Z,101432.66
2022-10-26T11:23:12.843Z,101444.38
2022-10-26T11:25:56.946Z,101433.44
2022-10-26T11:28:37.492Z,101433.59
2022-10-26T11:31:08.305Z,101424.13
2022-10-26T11:33:41.532Z,101428.34
2022-10-26T11:36:21.880Z,101422.34
2022-10-26T11:39:20.391Z,101398.63
2022-10-26T11:42:21.330Z,101392.16
2022-10-26T11:45:22.910Z,101398.09
2022-10-26T11:48:16.100Z,101386.34
2022-10-26T11:50:49.057Z,101387.63
2022-10-26T11:53:18.059Z,101386.53
2022-10-26T11:55:48.878Z,101393.28
2022-10-26T11:58:17.255Z,101385.91
2022-10-26T12:01:07.538Z,101389.81
2022-10-26T12:03:38.099Z,101395.63
2022-10-26T12:06:04.731Z,101396.31
2022-10-26T12:08:36.314Z,101405.97
2022-10-26T12:11:09.989Z,101405.69
2022-10-26T12:13:42.295Z,101404.78
2022-10-26T12:16:40.144Z,101397.88
2022-10-26T12:19:14.727Z,101401.75
2022-10-26T12:21:43.867Z,101399.53
2022-10-26T12:24:22.681Z,101406.13
2022-10-26T12:26:50.708Z,101402.13
2022-10-26T12:29:29.463Z,101414.13
2022-10-26T12:31:55.951Z,101402.38
2022-10-26T12:34:29.404Z,101403.06
2022-10-26T12:36:55.806Z,101403.41
2022-10-26T12:39:36.278Z,101407.47
2022-10-26T12:42:05.574Z,101410.09
2022-10-26T12:44:37.828Z,101408.78
2022-10-26T12:47:05.300Z,101410.94
2022-10-26T12:50:06.210Z,101419.41
2022-10-26T12:53:11.057Z,101428.97
2022-10-26T12:55:46.623Z,101427.28
2022-10-26T12:58:32.508Z,101424.56
2022-10-26T13:00:58.957Z,101423.09
2022-10-26T13:04:09.103Z,101420.75
2022-10-26T13:06:54.475Z,101403.00
2022-10-26T13:09:23.424Z,101403.22
2022-10-26T13:11:53.030Z,101399.88
2022-10-26T13:14:37.263Z,101397.19
2022-10-26T13:17:05.514Z,101396.38
2022-10-26T13:19:45.467Z,101403.72
2022-10-26T13:22:16.334Z,101382.03
2022-10-26T13:24:52.285Z,101370.41
2022-10-26T13:27:18.982Z,101371.03
2022-10-26T13:30:03.475Z,101348.91
2022-10-26T13:32:33.763Z,101333.09
2022-10-26T13:35:01.854Z,101320.56
2022-10-26T13:37:31.638Z,101301.00
2022-10-26T13:39:59.677Z,101297.63
2022-10-26T13:43:04.736Z,101305.38
2022-10-26T13:45:34.464Z,101321.66
2022-10-26T13:48:10.241Z,101341.06
2022-10-26T13:51:01.860Z,101344.09
2022-10-26T13:53:40.437Z,101369.53
2022-10-26T13:56:13.701Z,101369.22
2022-10-26T13:58:48.965Z,101381.50
2022-10-26T14:01:18.078Z,101402.09
2022-10-26T14:03:44.628Z,101408.91
2022-10-26T14:06:24.041Z,101404.66
2022-10-26T14:08:51.823Z,101401.63
2022-10-26T14:11:21.164Z,101403.38
2022-10-26T14:13:49.243Z,101392.50
2022-10-26T14:16:19.192Z,101401.78
2022-10-26T14:18:46.408Z,101398.97
2022-10-26T14:21:16.136Z,101410.44
2022-10-26T14:23:49.044Z,101402.72
2022-10-26T14:26:26.586Z,101408.22
2022-10-26T14:28:56.378Z,101402.09
2022-10-26T14:31:25.445Z,101411.34
2022-10-26T14:33:52.678Z,101412.25
2022-10-26T14:36:21.720Z,101413.34
2022-10-26T14:38:50.126Z,101426.91
2022-10-26T14:41:17.578Z,101430.16
2022-10-26T14:43:44.686Z,101427.06
2022-10-26T14:46:18.604Z,101432.19
2022-10-26T14:48:53.917Z,101445.13
2022-10-26T14:51:22.367Z,101437.94
2022-10-26T14:53:51.032Z,101440.09
2022-10-26T14:56:35.650Z,101440.38
2022-10-26T14:59:22.649Z,101435.19
2022-10-26T15:01:54.008Z,101424.16
2022-10-26T15:04:32.463Z,101425.84
2022-10-26T15:07:18.200Z,101437.53
2022-10-26T15:09:51.927Z,101442.66
2022-10-26T15:12:33.498Z,101437.69
2022-10-26T15:17:55.240Z,101423.97
2022-10-26T15:20:23.338Z,101433.81
2022-10-26T15:23:01.678Z,101431.53
2022-10-26T15:25:30.155Z,101429.69
2022-10-26T15:28:09.251Z,101438.50
2022-10-26T15:30:35.751Z,101440.34
2022-10-26T15:33:18.803Z,101433.41
2022-10-26T15:35:45.240Z,101428.22
2022-10-26T15:38:11.866Z,101430.66
2022-10-26T15:40:42.627Z,101430.84
2022-10-26T15:43:10.475Z,101440.88
2022-10-26T15:45:47.887Z,101430.84
2022-10-26T15:48:17.723Z,101445.72
2022-10-26T15:50:44.201Z,101437.69
2022-10-26T15:53:18.233Z,101433.31
2022-10-26T15:55:44.799Z,101451.09
2022-10-26T15:58:11.605Z,101449.66
2022-10-26T16:00:38.078Z,101453.38
2022-10-26T16:03:04.545Z,101458.56
2022-10-26T16:07:58.642Z,101457.38
2022-10-26T16:10:25.668Z,101474.09
2022-10-26T16:12:52.607Z,101466.66
2022-10-26T16:15:24.396Z,101481.31
2022-10-26T16:17:51.237Z,101481.53
2022-10-26T16:20:23.182Z,101485.25
2022-10-26T16:22:51.256Z,101495.34
2022-10-26T16:25:20.840Z,101500.91
2022-10-26T16:27:47.832Z,101496.75
2022-10-26T16:30:14.368Z,101509.78
2022-10-26T16:32:41.232Z,101509.97
2022-10-26T16:35:08.443Z,101510.16
2022-10-26T16:37:34.930Z,101510.97
2022-10-26T16:40:01.374Z,101527.47
2022-10-26T16:42:28.461Z,101548.50
2022-10-26T16:44:57.594Z,101546.81
2022-10-26T16:47:27.105Z,101559.78
2022-10-26T16:49:53.843Z,101564.97
2022-10-26T16:52:20.309Z,101564.94
2022-10-26T16:54:46.807Z,101567.13
2022-10-26T16:57:13.323Z,101585.47
2022-10-26T16:59:39.832Z,101585.47
2022-10-26T17:02:06.619Z,101597.00
2022-10-26T17:04:33.135Z,101602.88
2022-10-26T17:07:02.287Z,101596.31
2022-10-26T17:09:29.774Z,101607.00
2022-10-26T17:12:00.937Z,101607.88
2022-10-26T17:14:31.909Z,101612.97
2022-10-26T17:16:58.888Z,101618.78
2022-10-26T17:19:25.351Z,101612.78
2022-10-26T17:21:53.876Z,101625.38
2022-10-26T17:24:20.731Z,101620.25
2022-10-26T17:26:47.485Z,101618.00
2022-10-26T17:29:14.156Z,101614.50
2022-10-26T17:31:40.726Z,101607.69
2022-10-26T17:34:07.271Z,101617.59
2022-10-26T17:36:33.796Z,101611.59
2022-10-26T17:39:00.898Z,101601.88
2022-10-26T17:41:28.072Z,101610.97
2022-10-26T17:43:54.624Z,101603.56
2022-10-26T17:46:25.642Z,101623.56
2022-10-26T17:48:59.452Z,101617.41
2022-10-26T17:51:29.655Z,101619.66
2022-10-26T17:53:56.924Z,101624.00
2022-10-26T17:56:26.767Z,101628.13
2022-10-26T17:58:58.468Z,101629.38
2022-10-26T18:01:25.288Z,101629.38
2022-10-26T18:03:52.063Z,101633.09
2022-10-26T18:06:18.861Z,101627.13
2022-10-26T18:08:45.647Z,101628.56
2022-10-26T18:11:15.002Z,101629.81
2022-10-26T18:13:41.547Z,101631.06
2022-10-26T18:16:11.000Z,101640.13
2022-10-26T18:18:38.530Z,101650.03
2022-10-26T18:21:09.842Z,101652.28
2022-10-26T18:23:36.814Z,101657.06
2022-10-26T18:26:11.125Z,101663.66
2022-10-26T18:28:39.863Z,101655.41
2022-10-26T18:31:07.880Z,101652.34
2022-10-26T18:33:36.598Z,101664.06
2022-10-26T18:36:04.298Z,101659.53
2022-10-26T18:38:31.367Z,101664.50
2022-10-26T18:40:58.031Z,101678.53
2022-10-26T18:43:24.696Z,101668.84
2022-10-26T18:45:51.192Z,101676.47
2022-10-26T18:48:18.673Z,101682.47
2022-10-26T18:50:45.695Z,101680.84
2022-10-26T18:53:16.369Z,101686.63
2022-10-26T18:55:43.021Z,101689.72
2022-10-26T18:58:11.349Z,101676.91
2022-10-26T19:00:38.841Z,101685.56
2022-10-26T19:03:07.979Z,101687.03
2022-10-26T19:05:35.081Z,101696.31
2022-10-26T19:08:01.546Z,101700.03
2022-10-26T19:10:28.076Z,101698.19
2022-10-26T19:12:54.571Z,101699.00
2022-10-26T19:15:21.590Z,101692.19
2022-10-26T19:17:48.083Z,101705.44
2022-10-26T19:20:14.715Z,101695.31
2022-10-26T19:22:41.260Z,101699.44
2022-10-26T19:25:08.519Z,101706.06
2022-10-26T19:27:35.042Z,101701.88
2022-10-26T19:30:01.578Z,101709.53
2022-10-26T19:32:28.787Z,101711.03
2022-10-26T19:34:55.376Z,101708.75
2022-10-26T19:37:23.719Z,101712.88
2022-10-26T19:39:52.517Z,101715.75
2022-10-26T19:42:19.019Z,101712.25
2022-10-26T19:44:45.470Z,101720.53
2022-10-26T19:47:11.922Z,101717.22
2022-10-26T19:49:38.390Z,101725.69
2022-10-26T19:52:04.992Z,101728.16
2022-10-26T19:54:31.662Z,101726.31
2022-10-26T19:56:58.190Z,101724.84
2022-10-26T19:59:24.651Z,101730.84
2022-10-26T20:01:51.197Z,101732.91
2022-10-26T20:04:17.780Z,101730.66
2022-10-26T20:06:44.331Z,101735.81
2022-10-26T20:09:10.966Z,101731.06
2022-10-26T20:11:39.642Z,101737.25
2022-10-26T20:14:07.505Z,101733.53
2022-10-26T20:16:33.978Z,101733.53
2022-10-26T20:19:01.103Z,101732.31
2022-10-26T20:21:27.579Z,101741.41
2022-10-26T20:23:54.038Z,101738.50
2022-10-26T20:26:21.387Z,101739.94
2022-10-26T20:28:51.088Z,101733.13
2022-10-26T20:31:17.782Z,101741.38
2022-10-26T20:33:44.359Z,101747.38
2022-10-26T20:36:10.830Z,101747.59
2022-10-26T20:38:39.052Z,101741.81
2022-10-26T20:41:07.975Z,101750.88
2022-10-26T20:43:46.713Z,101748.00
2022-10-26T20:46:23.388Z,101749.44
2022-10-26T20:48:50.968Z,101756.03
2022-10-26T20:51:22.280Z,101757.09
2022-10-26T20:54:01.478Z,101760.81
2022-10-26T20:56:28.244Z,101759.16
2022-10-26T20:58:59.764Z,101756.28
2022-10-26T21:01:34.379Z,101760.41
2022-10-26T21:04:02.518Z,101750.47
2022-10-26T21:06:29.854Z,101763.69
2022-10-26T21:08:57.230Z,101765.34
2022-10-26T21:11:24.951Z,101764.94
2022-10-26T21:13:53.066Z,101764.53
2022-10-26T21:16:19.534Z,101774.22
2022-10-26T21:18:46.070Z,101773.59
2022-10-26T21:21:12.594Z,101776.28
2022-10-26T21:23:40.543Z,101776.91
2022-10-26T21:26:07.922Z,101771.75
2022-10-26T21:28:42.159Z,101776.53
2022-10-26T21:31:12.717Z,101774.44
2022-10-26T21:33:39.264Z,101774.44
2022-10-26T21:36:08.292Z,101778.16
2022-10-26T21:38:35.187Z,101778.75
2022-10-26T21:41:03.883Z,101777.09
2022-10-26T21:43:30.657Z,101787.22
2022-10-26T21:46:03.586Z,101790.53
2022-10-26T21:48:31.534Z,101794.88
2022-10-26T21:50:58.006Z,101800.66
2022-10-26T21:53:26.526Z,101796.72
2022-10-26T21:56:00.709Z,101807.47
2022-10-26T21:58:27.662Z,101799.00
2022-10-26T22:00:54.178Z,101803.31
2022-10-26T22:03:20.698Z,101810.56
2022-10-26T22:05:53.403Z,101812.00
2022-10-26T22:08:20.016Z,101812.41
2022-10-26T22:10:46.533Z,101822.75
2022-10-26T22:13:13.004Z,101816.16
2022-10-26T22:15:39.541Z,101805.59
2022-10-26T22:18:06.109Z,101815.91
2022-10-26T22:20:32.655Z,101816.16
2022-10-26T22:22:59.165Z,101810.75
2022-10-26T22:25:25.652Z,101818.00
2022-10-26T22:27:52.310Z,101823.56
2022-10-26T22:30:19.037Z,101822.13
2022-10-26T22:32:45.507Z,101821.50
2022-10-26T22:35:28.605Z,101825.19
2022-10-26T22:37:56.192Z,101823.75
2022-10-26T22:40:22.637Z,101829.34
2022-10-26T22:42:51.572Z,101824.16
2022-10-26T22:45:18.337Z,101823.13
2022-10-26T22:47:44.862Z,101831.38
2022-10-26T22:50:11.322Z,101831.75
2022-10-26T22:52:37.787Z,101824.34
2022-10-26T22:55:04.327Z,101828.63
2022-10-26T22:57:30.838Z,101828.81
2022-10-26T22:59:57.296Z,101833.56
2022-10-26T23:02:23.810Z,101832.91
2022-10-26T23:04:50.314Z,101840.34
2022-10-26T23:07:16.797Z,101850.25
2022-10-26T23:09:43.264Z,101840.06
2022-10-26T23:12:09.751Z,101855.97
2022-10-26T23:14:36.333Z,101857.38
2022-10-26T23:17:03.780Z,101864.22
2022-10-26T23:19:30.232Z,101859.19
2022-10-26T23:21:56.684Z,101873.03
2022-10-26T23:24:23.171Z,101870.75
2022-10-26T23:26:49.679Z,101882.34
2022-10-26T23:29:16.337Z,101884.38
2022-10-26T23:31:42.805Z,101873.66
2022-10-26T23:34:09.455Z,101883.75
2022-10-26T23:36:35.919Z,101879.44
2022-10-26T23:39:02.831Z,101873.84
2022-10-26T23:41:29.360Z,101880.03
2022-10-26T23:43:55.869Z,101884.38
2022-10-26T23:46:22.410Z,101889.94
2022-10-26T23:48:48.906Z,101886.22
2022-10-26T23:51:15.395Z,101883.06
2022-10-26T23:53:41.843Z,101881.25
2022-10-26T23:56:08.296Z,101886.03
2022-10-26T23:58:34.783Z,101888.94
